Pagina principale
METAR-TAF:

METAR-TAF

Aeroporti :

Aeroporto di Guidonia

Guidonia Montecelio, Italia

latitudine: 42-00N, longitudine: 012-44E, altezza: 88 m

Osservazione

Il bollettino è stato emesso 56 minuti fa, alle 09:55 UTC
Vento 4 kt da ovest/sud-ovest
Temperature 12°C
Umidità 76%
Pressione 1010 hPa
Visibilità 10 km o più
Nuvoloso ad un'altezza di 3500 ft

METAR: LIRG 090955Z 25004KT 9999 BKN035 12/08 Q1010 RMK OVC SCT060 MON NE CIME INC NC VIS MIN 9999 BLU

Ora: 11:51 (10:51 UTC)

Previsione

Il bollettino è stato emesso 2 ore e 51 minuti fa, alle 08:00 UTC
Previsione valida dal 09 alle 09 UTC al 09 alle 18 UTC
Vento 5 kt da est
Visibilità 10 km o più
Nubi sparse ad un'altezza di 2500 ft
Nubi sparse ad un'altezza di 3500 ft
Temporaneamente
dal 09 alle 10 UTC al 09 alle 12 UTC
pioggia

TAF: LIRG 090800Z 0909/0918 10005KT 9999 SCT025 SCT035 TEMPO 0910/0912 RA

Osservazioni e previsioni meteorologiche di più di 4000 aeroporti (messaggi METAR e TAF).

Le stazioni disponibili sono rappresentate dai dischi gialli e rossi sulla carta.

Puntare il mouse per vedere il nome della stazione.

Clicca sopra per visualizzare le osservazioni e previsioni meteorologiche.

Per cambiare la mappa : fare clic sui pulsanti verdi con una croce nera per ingrandire, il pulsante verde con un trattino per diminuire, o sulla freccia verde per le mappe adiacenti.


METAR-TAF: